createdAt,value
2017-10-01T00:00:46.745Z,87.90
2017-10-01T00:03:16.287Z,87.70
2017-10-01T00:05:45.865Z,87.70
2017-10-01T00:08:15.252Z,86.90
2017-10-01T00:10:44.677Z,88.90
2017-10-01T00:13:14.608Z,88.00
2017-10-01T00:15:44.732Z,87.80
2017-10-01T00:18:14.999Z,87.20
2017-10-01T00:20:44.199Z,87.20
2017-10-01T00:23:13.492Z,88.20
2017-10-01T00:25:43.871Z,87.90
2017-10-01T00:28:13.121Z,88.60
2017-10-01T00:30:43.205Z,87.50
2017-10-01T00:33:13.253Z,86.60
2017-10-01T00:35:42.505Z,86.60
2017-10-01T00:38:11.751Z,86.20
2017-10-01T00:40:41.034Z,85.80
2017-10-01T00:43:10.284Z,85.20
2017-10-01T00:45:39.519Z,85.60
2017-10-01T00:48:09.550Z,85.10
2017-10-01T00:50:38.834Z,85.10
2017-10-01T00:53:08.092Z,85.10
2017-10-01T00:55:37.356Z,85.30
2017-10-01T00:58:06.599Z,85.70
2017-10-01T01:03:51.683Z,86.20
2017-10-01T01:06:21.677Z,86.20
2017-10-01T01:08:50.975Z,86.10
2017-10-01T01:11:20.211Z,84.80
2017-10-01T01:13:50.248Z,85.50
2017-10-01T01:16:19.482Z,85.30
2017-10-01T01:18:48.719Z,84.50
2017-10-01T01:21:18.782Z,85.20
2017-10-01T01:23:48.010Z,85.90
2017-10-01T01:26:17.256Z,85.50
2017-10-01T01:28:46.510Z,84.80
2017-10-01T01:31:15.815Z,84.90
2017-10-01T01:33:45.086Z,85.40
2017-10-01T01:36:14.323Z,84.40
2017-10-01T01:38:43.570Z,85.10
2017-10-01T01:41:12.847Z,85.20
2017-10-01T01:43:42.851Z,85.60
2017-10-01T01:46:12.879Z,85.20
2017-10-01T01:48:42.924Z,84.80
2017-10-01T01:51:12.159Z,84.90
2017-10-01T01:53:41.400Z,85.10
2017-10-01T01:56:11.459Z,84.90
2017-10-01T01:58:40.691Z,84.90
2017-10-01T02:01:09.979Z,85.30
2017-10-01T02:03:39.221Z,84.50
2017-10-01T02:06:09.274Z,85.00
2017-10-01T02:08:38.520Z,85.00
2017-10-01T02:11:07.751Z,84.90
2017-10-01T02:13:37.034Z,85.50
2017-10-01T02:16:07.044Z,84.70
2017-10-01T02:18:37.080Z,84.70
2017-10-01T02:21:06.339Z,84.70
2017-10-01T02:23:35.581Z,85.00
2017-10-01T02:26:04.834Z,84.60
2017-10-01T02:28:34.088Z,84.80
2017-10-01T02:31:03.369Z,84.40
2017-10-01T02:33:33.368Z,85.20
2017-10-01T02:36:02.627Z,85.20
2017-10-01T02:38:31.911Z,85.80
2017-10-01T02:41:01.152Z,84.40
2017-10-01T02:43:30.395Z,84.80
2017-10-01T02:46:00.026Z,84.60
2017-10-01T02:48:29.266Z,84.20
2017-10-01T02:50:58.513Z,84.40
2017-10-01T02:53:27.789Z,84.40
2017-10-01T02:55:57.798Z,84.10
2017-10-01T02:58:27.861Z,83.60
2017-10-01T03:00:57.109Z,83.60
2017-10-01T03:03:26.353Z,83.80
2017-10-01T03:05:55.614Z,84.40
2017-10-01T03:08:25.649Z,84.50
2017-10-01T03:10:55.698Z,84.70
2017-10-01T03:13:24.949Z,84.60
2017-10-01T03:15:54.195Z,84.70
2017-10-01T03:18:23.484Z,84.60
2017-10-01T03:20:52.727Z,84.10
2017-10-01T03:23:21.985Z,84.50
2017-10-01T03:25:51.243Z,83.40
2017-10-01T03:28:20.535Z,83.60
2017-10-01T03:30:49.839Z,83.70
2017-10-01T03:33:19.080Z,83.80
2017-10-01T03:35:48.332Z,83.50
2017-10-01T03:38:17.570Z,83.90
2017-10-01T03:40:46.852Z,84.10
2017-10-01T03:43:16.095Z,83.70
2017-10-01T03:45:45.334Z,83.80
2017-10-01T03:48:14.602Z,83.30
2017-10-01T03:50:43.846Z,83.90
2017-10-01T03:53:13.092Z,84.40
2017-10-01T03:55:42.363Z,84.20
2017-10-01T03:58:11.629Z,83.70
2017-10-01T04:00:40.875Z,84.10
2017-10-01T04:03:10.143Z,84.00
2017-10-01T04:05:39.382Z,84.20
2017-10-01T04:08:08.624Z,83.90
2017-10-01T04:10:38.131Z,83.80
2017-10-01T04:13:08.179Z,83.30
2017-10-01T04:15:38.213Z,82.80
2017-10-01T04:18:07.580Z,82.80
2017-10-01T04:20:36.821Z,82.70
2017-10-01T04:23:06.063Z,83.00
2017-10-01T04:25:35.359Z,83.10
2017-10-01T04:28:04.602Z,83.00
2017-10-01T04:30:34.647Z,83.50
2017-10-01T04:33:03.955Z,83.40
2017-10-01T04:35:33.219Z,83.50
2017-10-01T04:38:03.299Z,83.40
2017-10-01T04:40:32.539Z,83.40
2017-10-01T04:43:02.634Z,83.60
2017-10-01T04:45:31.879Z,83.60
2017-10-01T04:48:01.119Z,84.00
2017-10-01T04:50:30.415Z,84.30
2017-10-01T04:52:59.658Z,83.70
2017-10-01T04:55:28.939Z,84.10
2017-10-01T04:57:58.203Z,84.40
2017-10-01T05:00:27.459Z,84.20
2017-10-01T05:02:57.505Z,84.60
2017-10-01T05:05:26.743Z,84.60
2017-10-01T05:07:55.990Z,84.40
2017-10-01T05:10:25.284Z,83.70
2017-10-01T05:12:55.300Z,83.60
2017-10-01T05:15:25.414Z,83.90
2017-10-01T05:17:54.671Z,83.90
2017-10-01T05:20:23.919Z,84.20
2017-10-01T05:22:53.180Z,83.60
2017-10-01T05:25:22.433Z,83.70
2017-10-01T05:27:51.670Z,82.90
2017-10-01T05:30:20.981Z,82.90
2017-10-01T05:32:50.222Z,81.80
2017-10-01T05:35:20.251Z,81.80
2017-10-01T05:37:49.501Z,81.80
2017-10-01T05:40:18.771Z,81.70
2017-10-01T05:42:48.005Z,80.70
2017-10-01T05:45:17.277Z,81.00
2017-10-01T05:47:46.526Z,81.70
2017-10-01T05:50:16.582Z,82.20
2017-10-01T05:52:45.839Z,82.20
2017-10-01T05:55:15.915Z,83.10
2017-10-01T05:57:45.376Z,82.20
2017-10-01T06:00:15.568Z,82.50
2017-10-01T06:02:45.048Z,81.90
2017-10-01T06:05:14.540Z,81.70
2017-10-01T06:07:44.055Z,82.00
2017-10-01T06:10:13.502Z,82.20
2017-10-01T06:12:43.376Z,82.90
2017-10-01T06:15:12.799Z,83.20
2017-10-01T06:17:42.353Z,84.10
2017-10-01T06:20:11.903Z,82.90
2017-10-01T06:22:41.347Z,83.50
2017-10-01T06:25:10.863Z,83.20
2017-10-01T06:27:40.107Z,82.70
2017-10-01T06:30:09.352Z,83.70
2017-10-01T06:32:39.383Z,83.20
2017-10-01T06:35:09.588Z,83.50
2017-10-01T06:37:39.034Z,83.50
2017-10-01T06:40:14.663Z,84.00
2017-10-01T06:42:44.194Z,84.40
2017-10-01T06:45:13.446Z,85.10
2017-10-01T06:47:43.693Z,85.10
2017-10-01T06:50:12.953Z,85.10
2017-10-01T06:52:42.436Z,84.80
2017-10-01T06:55:12.592Z,85.80
2017-10-01T06:57:41.880Z,84.60
2017-10-01T07:00:13.063Z,83.90
2017-10-01T07:02:43.453Z,83.70
2017-10-01T07:05:13.022Z,82.50
2017-10-01T07:07:42.543Z,82.50
2017-10-01T07:10:11.829Z,81.50
2017-10-01T07:12:41.143Z,82.00
2017-10-01T07:15:10.508Z,81.50
2017-10-01T07:17:39.979Z,81.20
2017-10-01T07:20:09.218Z,81.30
2017-10-01T07:22:38.527Z,81.00
2017-10-01T07:25:07.773Z,80.80
2017-10-01T07:27:37.014Z,81.20
2017-10-01T07:30:06.320Z,80.30
2017-10-01T07:32:35.560Z,79.20
2017-10-01T07:35:04.803Z,79.60
2017-10-01T07:37:34.859Z,80.70
2017-10-01T07:40:04.109Z,80.70
2017-10-01T07:42:34.191Z,79.90
2017-10-01T07:45:03.433Z,79.90
2017-10-01T07:47:33.493Z,79.20
2017-10-01T07:50:02.749Z,79.20
2017-10-01T07:52:31.998Z,78.40
2017-10-01T07:55:01.264Z,78.60
2017-10-01T07:57:31.266Z,77.80
2017-10-01T08:00:01.303Z,77.70
2017-10-01T08:02:30.640Z,77.60
2017-10-01T08:04:59.881Z,78.60
2017-10-01T08:07:29.939Z,77.50
2017-10-01T08:09:59.188Z,77.50
2017-10-01T08:12:28.464Z,78.10
2017-10-01T08:14:57.721Z,79.50
2017-10-01T08:17:26.964Z,77.40
2017-10-01T08:19:56.203Z,77.90
2017-10-01T08:22:26.272Z,79.40
2017-10-01T08:24:55.523Z,79.40
2017-10-01T08:27:25.580Z,80.60
2017-10-01T08:29:54.820Z,80.00
2017-10-01T08:32:24.368Z,79.30
2017-10-01T08:34:53.631Z,77.40
2017-10-01T08:37:24.483Z,75.10
2017-10-01T08:39:54.533Z,76.40
2017-10-01T08:42:24.566Z,77.30
2017-10-01T08:44:53.813Z,77.30
2017-10-01T08:47:23.121Z,77.00
2017-10-01T08:49:53.195Z,75.20
2017-10-01T08:52:22.442Z,75.10
2017-10-01T08:54:52.500Z,73.60
2017-10-01T08:57:21.777Z,73.40
2017-10-01T08:59:51.766Z,73.60
2017-10-01T09:02:21.877Z,71.30
2017-10-01T09:04:51.119Z,70.50
2017-10-01T09:07:20.439Z,71.60
2017-10-01T09:09:49.719Z,71.60
2017-10-01T09:12:18.980Z,71.30
2017-10-01T09:14:48.226Z,69.60
2017-10-01T09:17:17.572Z,71.10
2017-10-01T09:19:46.782Z,69.80
2017-10-01T09:22:16.063Z,70.30
2017-10-01T09:24:45.358Z,71.30
2017-10-01T09:27:15.349Z,69.80
2017-10-01T09:29:44.606Z,69.80
2017-10-01T09:32:13.909Z,68.40
2017-10-01T09:34:43.147Z,70.00
2017-10-01T09:37:12.386Z,68.60
2017-10-01T09:39:41.667Z,67.60
2017-10-01T09:42:10.951Z,66.40
2017-10-01T09:44:40.203Z,67.60
2017-10-01T09:47:09.464Z,68.90
2017-10-01T09:49:38.709Z,69.90
2017-10-01T09:52:08.014Z,68.70
2017-10-01T09:54:37.242Z,66.80
2017-10-01T09:57:05.784Z,68.60
2017-10-01T09:59:34.847Z,65.70
2017-10-01T10:02:04.092Z,67.20
2017-10-01T10:04:34.116Z,65.40
2017-10-01T10:07:04.140Z,66.60
2017-10-01T10:09:34.146Z,67.20
2017-10-01T10:12:04.187Z,68.10
2017-10-01T10:14:33.439Z,68.10
2017-10-01T10:17:02.746Z,68.20
2017-10-01T10:19:39.027Z,67.10
2017-10-01T10:22:08.276Z,66.80
2017-10-01T10:24:37.530Z,66.10
2017-10-01T10:27:07.560Z,65.50
2017-10-01T10:29:37.567Z,66.90
2017-10-01T10:32:07.602Z,67.00
2017-10-01T10:34:37.605Z,67.20
2017-10-01T10:37:06.905Z,67.10
2017-10-01T10:39:37.044Z,66.30
2017-10-01T10:42:06.317Z,66.30
2017-10-01T10:44:36.260Z,66.80
2017-10-01T10:47:05.500Z,66.00
2017-10-01T10:49:34.766Z,65.90
2017-10-01T10:52:04.797Z,65.30
2017-10-01T10:54:34.147Z,65.30
2017-10-01T10:57:03.416Z,64.90
2017-10-01T10:59:32.656Z,65.50
2017-10-01T11:02:02.751Z,65.80
2017-10-01T11:04:31.971Z,65.80
2017-10-01T11:07:02.028Z,65.10
2017-10-01T11:09:31.282Z,64.80
2017-10-01T11:12:00.547Z,64.40
2017-10-01T11:14:29.792Z,66.20
2017-10-01T11:16:59.044Z,64.70
2017-10-01T11:19:28.313Z,64.60
2017-10-01T11:21:58.357Z,62.90
2017-10-01T11:24:27.598Z,62.90
2017-10-01T11:26:56.832Z,64.50
2017-10-01T11:29:26.112Z,64.10
2017-10-01T11:31:56.117Z,63.30
2017-10-01T11:34:25.529Z,63.30
2017-10-01T11:36:56.368Z,63.90
2017-10-01T11:39:26.123Z,61.70
2017-10-01T11:41:56.047Z,62.80
2017-10-01T11:44:25.879Z,62.90
2017-10-01T11:46:55.163Z,61.10
2017-10-01T11:49:24.394Z,61.90
2017-10-01T11:51:53.636Z,62.10
2017-10-01T11:54:22.915Z,62.70
2017-10-01T11:56:52.925Z,60.60
2017-10-01T11:59:22.212Z,60.60
2017-10-01T12:01:51.456Z,59.60
2017-10-01T12:04:20.699Z,59.50
2017-10-01T12:06:49.959Z,59.30
2017-10-01T12:09:19.207Z,61.00
2017-10-01T12:11:48.463Z,59.70
2017-10-01T12:14:17.703Z,60.70
2017-10-01T12:16:46.976Z,60.80
2017-10-01T12:19:16.247Z,59.90
2017-10-01T12:21:45.492Z,60.20
2017-10-01T12:24:14.739Z,59.80
2017-10-01T12:26:44.787Z,61.50
2017-10-01T12:29:14.043Z,61.50
2017-10-01T12:31:43.299Z,60.80
2017-10-01T12:34:12.559Z,59.90
2017-10-01T12:36:41.813Z,60.00
2017-10-01T12:39:11.046Z,60.10
2017-10-01T12:41:41.064Z,58.60
2017-10-01T12:44:11.083Z,58.90
2017-10-01T12:46:40.451Z,58.80
2017-10-01T12:49:09.695Z,58.50
2017-10-01T12:51:38.982Z,58.90
2017-10-01T12:54:08.990Z,57.30
2017-10-01T12:56:38.254Z,57.20
2017-10-01T12:59:07.583Z,58.20
2017-10-01T13:01:42.344Z,57.80
2017-10-01T13:04:12.364Z,58.70
2017-10-01T13:06:41.607Z,58.60
2017-10-01T13:09:10.842Z,57.90
2017-10-01T13:11:40.867Z,57.50
2017-10-01T13:14:10.873Z,58.60
2017-10-01T13:16:40.147Z,58.60
2017-10-01T13:19:09.504Z,57.60
2017-10-01T13:21:38.764Z,59.30
2017-10-01T13:24:08.001Z,58.90
2017-10-01T13:26:37.284Z,58.10
2017-10-01T13:29:07.325Z,57.30
2017-10-01T13:31:36.592Z,57.30
2017-10-01T13:34:05.884Z,57.60
2017-10-01T13:36:35.143Z,56.00
2017-10-01T13:39:04.396Z,57.20
2017-10-01T13:41:33.670Z,56.10
2017-10-01T13:44:02.926Z,56.00
2017-10-01T13:46:32.174Z,55.70
2017-10-01T13:49:01.463Z,56.10
2017-10-01T13:51:30.721Z,56.10
2017-10-01T13:54:00.743Z,56.70
2017-10-01T13:56:30.027Z,56.70
2017-10-01T13:59:00.038Z,57.40
2017-10-01T14:01:30.059Z,57.00
2017-10-01T14:03:59.381Z,57.00
2017-10-01T14:06:28.623Z,57.70
2017-10-01T14:08:57.863Z,57.20
2017-10-01T14:11:27.122Z,56.90
2017-10-01T14:13:56.368Z,55.80
2017-10-01T14:16:25.628Z,54.90
2017-10-01T14:18:54.939Z,54.30
2017-10-01T14:21:24.175Z,55.30
2017-10-01T14:23:54.180Z,55.30
2017-10-01T14:26:23.423Z,54.70
2017-10-01T14:28:52.676Z,55.00
2017-10-01T14:31:23.836Z,55.40
2017-10-01T14:33:53.074Z,55.30
2017-10-01T14:36:22.356Z,55.10
2017-10-01T14:38:51.601Z,55.70
2017-10-01T14:41:20.843Z,53.90
2017-10-01T14:43:50.132Z,54.20
2017-10-01T14:46:20.151Z,54.20
2017-10-01T14:48:49.563Z,54.30
2017-10-01T14:51:18.819Z,55.10
2017-10-01T14:53:49.065Z,55.10
2017-10-01T14:56:19.100Z,56.40
2017-10-01T14:58:48.364Z,56.00
2017-10-01T15:01:18.467Z,56.10
2017-10-01T15:03:47.743Z,56.00
2017-10-01T15:06:17.015Z,55.80
2017-10-01T15:08:47.024Z,54.70
2017-10-01T15:11:17.052Z,55.90
2017-10-01T15:14:09.345Z,55.80
2017-10-01T15:16:41.162Z,54.30
2017-10-01T15:19:10.402Z,54.70
2017-10-01T15:21:42.795Z,54.60
2017-10-01T15:24:17.947Z,55.10
2017-10-01T15:26:48.848Z,56.00
2017-10-01T15:29:18.138Z,56.00
2017-10-01T15:31:47.437Z,56.40
2017-10-01T15:34:18.507Z,56.70
2017-10-01T15:36:47.852Z,56.60
2017-10-01T15:39:17.840Z,55.90
2017-10-01T15:41:47.176Z,55.90
2017-10-01T15:44:17.169Z,56.10
2017-10-01T15:46:47.476Z,56.20
2017-10-01T15:49:16.683Z,56.20
2017-10-01T15:51:45.912Z,55.20
2017-10-01T15:54:15.199Z,55.80
2017-10-01T15:56:45.217Z,55.80
2017-10-01T15:59:15.238Z,55.90
2017-10-01T16:01:45.292Z,55.30
2017-10-01T16:04:14.527Z,55.30
2017-10-01T16:06:43.773Z,55.70
2017-10-01T16:09:13.054Z,56.20
2017-10-01T16:11:43.087Z,56.70
2017-10-01T16:14:12.414Z,56.70
2017-10-01T16:16:41.663Z,56.90
2017-10-01T16:19:11.695Z,56.60
2017-10-01T16:21:41.744Z,57.30
2017-10-01T16:24:11.083Z,57.30
2017-10-01T16:26:40.320Z,57.90
2017-10-01T16:29:09.599Z,57.80
2017-10-01T16:31:38.847Z,58.60
2017-10-01T16:34:08.083Z,59.40
2017-10-01T16:36:37.370Z,59.20
2017-10-01T16:39:06.607Z,60.20
2017-10-01T16:41:36.672Z,58.70
2017-10-01T16:44:06.628Z,58.70
2017-10-01T16:46:35.955Z,59.00
2017-10-01T16:49:05.983Z,61.80
2017-10-01T16:51:35.231Z,61.70
2017-10-01T16:54:04.495Z,62.50
2017-10-01T16:56:33.787Z,62.70
2017-10-01T16:59:03.858Z,62.50
2017-10-01T17:01:33.126Z,62.00
2017-10-01T17:04:02.542Z,61.90
2017-10-01T17:06:32.265Z,62.30
2017-10-01T17:09:01.532Z,62.80
2017-10-01T17:11:30.778Z,62.70
2017-10-01T17:14:00.042Z,62.90
2017-10-01T17:16:29.302Z,63.40
2017-10-01T17:18:58.555Z,63.10
2017-10-01T17:21:27.810Z,63.60
2017-10-01T17:23:57.875Z,63.70
2017-10-01T17:26:27.123Z,63.70
2017-10-01T17:28:57.171Z,65.20
2017-10-01T17:31:26.419Z,65.40
2017-10-01T17:33:55.663Z,65.20
2017-10-01T17:36:24.936Z,65.70
2017-10-01T17:38:54.190Z,65.10
2017-10-01T17:41:23.425Z,65.60
2017-10-01T17:43:52.746Z,66.30
2017-10-01T17:46:22.752Z,67.00
2017-10-01T17:48:52.783Z,67.80
2017-10-01T17:51:22.796Z,67.70
2017-10-01T17:53:52.840Z,67.80
2017-10-01T17:56:22.108Z,67.80
2017-10-01T17:58:51.363Z,67.20
2017-10-01T18:01:20.626Z,67.20
2017-10-01T18:03:49.888Z,67.10
2017-10-01T18:06:19.135Z,66.10
2017-10-01T18:08:48.492Z,65.70
2017-10-01T18:11:17.739Z,64.80
2017-10-01T18:13:47.027Z,64.30
2017-10-01T18:16:16.275Z,64.80
2017-10-01T18:18:45.523Z,65.30
2017-10-01T18:21:15.586Z,66.20
2017-10-01T18:23:44.824Z,66.20
2017-10-01T18:26:14.098Z,66.00
2017-10-01T18:28:43.339Z,66.30
2017-10-01T18:31:13.383Z,67.00
2017-10-01T18:33:43.475Z,66.90
2017-10-01T18:36:13.528Z,67.70
2017-10-01T18:38:42.883Z,67.70
2017-10-01T18:41:12.243Z,68.00
2017-10-01T18:43:41.491Z,68.60
2017-10-01T18:46:11.523Z,68.90
2017-10-01T18:48:40.810Z,68.90
2017-10-01T18:51:10.910Z,69.30
2017-10-01T18:53:40.421Z,69.20
2017-10-01T18:56:09.709Z,69.40
2017-10-01T18:58:38.952Z,69.50
2017-10-01T19:01:09.067Z,70.00
2017-10-01T19:03:39.120Z,70.60
2017-10-01T19:06:08.387Z,70.60
2017-10-01T19:08:37.700Z,70.80
2017-10-01T19:11:07.613Z,71.70
2017-10-01T19:13:36.856Z,70.90
2017-10-01T19:16:06.107Z,71.10
2017-10-01T19:18:35.395Z,71.30
2017-10-01T19:21:05.416Z,71.50
2017-10-01T19:23:35.464Z,71.80
2017-10-01T19:26:04.727Z,71.80
2017-10-01T19:28:34.775Z,72.80
2017-10-01T19:31:04.019Z,72.80
2017-10-01T19:33:33.263Z,72.80
2017-10-01T19:36:03.576Z,73.20
2017-10-01T19:38:32.855Z,73.30
2017-10-01T19:41:02.153Z,73.10
2017-10-01T19:43:31.403Z,73.50
2017-10-01T19:46:02.451Z,74.90
2017-10-01T19:48:31.778Z,74.50
2017-10-01T19:51:01.067Z,74.60
2017-10-01T19:53:30.319Z,74.40
2017-10-01T19:56:00.352Z,74.80
2017-10-01T19:58:29.640Z,74.80
2017-10-01T20:00:59.663Z,75.20
2017-10-01T20:03:29.736Z,75.30
2017-10-01T20:05:59.004Z,75.30
2017-10-01T20:08:28.303Z,75.30
2017-10-01T20:10:58.311Z,74.60
2017-10-01T20:13:27.563Z,74.20
2017-10-01T20:15:56.811Z,74.30
2017-10-01T20:18:26.099Z,74.30
2017-10-01T20:20:56.130Z,74.00
2017-10-01T20:23:25.428Z,74.10
2017-10-01T20:25:54.711Z,74.00
2017-10-01T20:28:24.768Z,75.10
2017-10-01T20:30:54.015Z,75.00
2017-10-01T20:33:23.266Z,75.40
2017-10-01T20:35:52.553Z,75.30
2017-10-01T20:38:21.807Z,74.80
2017-10-01T20:40:51.062Z,74.40
2017-10-01T20:43:20.339Z,74.00
2017-10-01T20:45:50.438Z,73.50
2017-10-01T20:48:19.748Z,73.50
2017-10-01T20:50:48.995Z,73.20
2017-10-01T20:53:18.260Z,72.70
2017-10-01T20:55:47.616Z,72.20
2017-10-01T20:58:16.839Z,71.80
2017-10-01T21:00:46.131Z,71.90
2017-10-01T21:03:15.383Z,71.30
2017-10-01T21:05:44.647Z,71.70
2017-10-01T21:08:13.962Z,71.50
2017-10-01T21:10:43.243Z,71.70
2017-10-01T21:13:12.481Z,71.80
2017-10-01T21:15:41.743Z,72.00
2017-10-01T21:18:11.018Z,72.30
2017-10-01T21:20:40.270Z,72.30
2017-10-01T21:23:09.510Z,72.50
2017-10-01T21:25:38.796Z,72.90
2017-10-01T21:28:08.047Z,73.10
2017-10-01T21:30:37.293Z,73.40
2017-10-01T21:33:06.559Z,73.50
2017-10-01T21:35:35.818Z,73.10
2017-10-01T21:38:05.074Z,73.10
2017-10-01T21:40:34.357Z,73.20
2017-10-01T21:43:03.615Z,73.10
2017-10-01T21:45:32.908Z,73.70
2017-10-01T21:48:02.160Z,73.60
2017-10-01T21:50:31.420Z,73.60
2017-10-01T21:53:00.702Z,74.00
2017-10-01T21:55:30.082Z,74.00
2017-10-01T21:57:59.339Z,74.40
2017-10-01T22:00:28.640Z,74.80
2017-10-01T22:02:57.879Z,75.10
2017-10-01T22:05:27.124Z,75.10
2017-10-01T22:07:57.161Z,75.70
2017-10-01T22:10:26.421Z,75.60
2017-10-01T22:12:55.667Z,75.50
2017-10-01T22:15:24.932Z,75.30
2017-10-01T22:17:55.001Z,75.70
2017-10-01T22:20:24.256Z,75.70
2017-10-01T22:22:54.341Z,76.60
2017-10-01T22:25:23.566Z,76.60
2017-10-01T22:27:52.833Z,76.40
2017-10-01T22:30:22.074Z,76.30
2017-10-01T22:32:52.116Z,76.70
2017-10-01T22:35:21.369Z,76.60
2017-10-01T22:37:50.623Z,76.70
2017-10-01T22:40:19.892Z,76.90
2017-10-01T22:42:49.943Z,77.00
2017-10-01T22:45:19.200Z,77.00
2017-10-01T22:47:48.578Z,77.30
2017-10-01T22:50:17.842Z,77.70
2017-10-01T22:52:47.094Z,77.70
2017-10-01T22:55:17.063Z,77.60
2017-10-01T22:57:47.045Z,77.20
2017-10-01T23:00:17.096Z,77.30
2017-10-01T23:02:46.357Z,77.30
2017-10-01T23:05:15.601Z,77.40
2017-10-01T23:07:44.884Z,77.20
2017-10-01T23:10:14.131Z,77.30
2017-10-01T23:12:43.385Z,77.40
2017-10-01T23:15:12.667Z,77.00
2017-10-01T23:17:42.696Z,77.60
2017-10-01T23:20:12.747Z,77.70
2017-10-01T23:22:41.995Z,77.70
2017-10-01T23:25:12.080Z,77.80
2017-10-01T23:27:41.343Z,77.80
2017-10-01T23:30:10.633Z,77.80
2017-10-01T23:32:39.889Z,78.00
2017-10-01T23:35:09.133Z,77.90
2017-10-01T23:37:38.403Z,78.10
2017-10-01T23:40:07.648Z,78.40
2017-10-01T23:42:36.931Z,78.30
2017-10-01T23:45:06.244Z,78.70
2017-10-01T23:47:35.491Z,78.70
2017-10-01T23:50:04.728Z,78.80
2017-10-01T23:52:34.008Z,78.80
2017-10-01T23:55:03.252Z,79.00
2017-10-01T23:57:32.529Z,79.10
